Time,TemperatureF,DewpointF,PressureIn,WindDirection,WindDirectionDegrees,WindSpeedMPH,WindSpeedGustMPH,Humidity,HourlyPrecipIn,Conditions,Clouds,dailyrainin,SoftwareType,DateUTC
2013-04-16 00:15:00,46.3,38.0,30.36,WSW,258,1.0,2.0,73,0.00,,,0.00,weatherlink.com 1.10,2013-04-16 07:15:00,
2013-04-16 00:30:00,46.8,38.0,30.37,WNW,300,1.0,3.0,71,0.00,,,0.00,weatherlink.com 1.10,2013-04-16 07:30:00,
2013-04-16 00:45:00,46.5,40.0,30.38,WNW,294,3.0,4.0,79,0.00,,,0.00,weatherlink.com 1.10,2013-04-16 07:45:00,
2013-04-16 01:00:00,46.2,41.0,30.38,NNW,328,3.0,4.0,81,0.00,,,0.00,weatherlink.com 1.10,2013-04-16 08:00:00,
2013-04-16 01:15:00,45.6,40.0,30.39,NNW,345,2.0,4.0,82,0.00,,,0.00,weatherlink.com 1.10,2013-04-16 08:15:00,
2013-04-16 01:30:00,45.4,41.0,30.39,North,4,4.0,4.0,83,0.00,,,0.00,weatherlink.com 1.10,2013-04-16 08:30:00,
2013-04-16 01:45:00,45.4,40.0,30.40,NNE,13,4.0,6.0,82,0.00,,,0.00,weatherlink.com 1.10,2013-04-16 08:45:00,
2013-04-16 02:00:00,44.9,40.0,30.40,NNE,23,3.0,4.0,84,0.00,,,0.00,weatherlink.com 1.10,2013-04-16 09:00:00,
2013-04-16 02:15:00,44.9,40.0,30.40,NNE,30,3.0,5.0,83,0.00,,,0.00,weatherlink.com 1.10,2013-04-16 09:15:00,
2013-04-16 02:30:00,44.4,40.0,30.41,NE,35,1.0,3.0,85,0.00,,,0.00,weatherlink.com 1.10,2013-04-16 09:30:00,
2013-04-16 02:45:00,44.5,41.0,30.41,NNW,338,2.0,6.0,87,0.00,,,0.00,weatherlink.com 1.10,2013-04-16 09:45:00,
2013-04-16 03:00:00,44.7,41.0,30.41,NNE,25,2.0,7.0,88,0.00,,,0.00,weatherlink.com 1.10,2013-04-16 10:00:00,
2013-04-16 03:15:00,44.5,41.0,30.42,North,8,6.0,7.0,87,0.00,,,0.00,weatherlink.com 1.10,2013-04-16 10:15:00,
2013-04-16 03:30:00,45.0,41.0,30.42,NE,46,4.0,8.0,84,0.00,,,0.00,weatherlink.com 1.10,2013-04-16 10:30:00,
2013-04-16 03:45:00,45.0,41.0,30.43,NE,54,5.0,9.0,84,0.00,,,0.00,weatherlink.com 1.10,2013-04-16 10:45:00,
2013-04-16 04:00:00,44.9,40.0,30.43,NE,34,3.0,6.0,84,0.00,,,0.00,weatherlink.com 1.10,2013-04-16 11:00:00,
2013-04-16 04:15:00,44.7,41.0,30.43,NE,34,4.0,5.0,86,0.00,,,0.00,weatherlink.com 1.10,2013-04-16 11:15:00,
2013-04-16 04:30:00,44.8,41.0,30.44,NNE,22,3.0,5.0,85,0.00,,,0.00,weatherlink.com 1.10,2013-04-16 11:30:00,
2013-04-16 04:45:00,44.6,40.0,30.44,NE,39,5.0,5.0,84,0.00,,,0.00,weatherlink.com 1.10,2013-04-16 11:45:00,
2013-04-16 05:00:00,44.2,41.0,30.45,NE,40,3.0,4.0,87,0.00,,,0.00,weatherlink.com 1.10,2013-04-16 12:00:00,
2013-04-16 05:15:00,44.2,41.0,30.45,NNE,32,2.0,6.0,87,0.00,,,0.00,weatherlink.com 1.10,2013-04-16 12:15:00,
2013-04-16 05:30:00,44.1,41.0,30.46,NNE,15,3.0,5.0,87,0.00,,,0.00,weatherlink.com 1.10,2013-04-16 12:30:00,
2013-04-16 05:45:00,44.0,41.0,30.46,NW,310,0.0,4.0,88,0.00,,,0.00,weatherlink.com 1.10,2013-04-16 12:45:00,
2013-04-16 06:00:00,43.8,41.0,30.47,NNE,22,3.0,4.0,90,0.00,,,0.00,weatherlink.com 1.10,2013-04-16 13:00:00,
2013-04-16 06:15:00,44.2,40.0,30.47,NE,41,5.0,6.0,84,0.00,,,0.00,weatherlink.com 1.10,2013-04-16 13:15:00,
2013-04-16 06:30:00,44.2,40.0,30.48,NNE,25,3.0,5.0,84,0.00,,,0.00,weatherlink.com 1.10,2013-04-16 13:30:00,
2013-04-16 06:45:00,45.0,39.0,30.48,NE,37,1.0,8.0,80,0.00,,,0.00,weatherlink.com 1.10,2013-04-16 13:45:00,
2013-04-16 07:00:00,45.5,39.0,30.49,ENE,59,3.0,6.0,78,0.00,,,0.00,weatherlink.com 1.10,2013-04-16 14:00:00,
2013-04-16 07:16:00,45.7,39.0,30.49,NNE,16,1.0,7.0,77,0.00,,,0.00,weatherlink.com 1.10,2013-04-16 14:16:00,
2013-04-16 07:31:00,46.5,40.0,30.50,NE,43,3.0,7.0,77,0.00,,,0.00,weatherlink.com 1.10,2013-04-16 14:31:00,
2013-04-16 07:46:00,46.4,39.0,30.50,NW,326,1.0,6.0,74,0.00,,,0.00,weatherlink.com 1.10,2013-04-16 14:46:00,
2013-04-16 08:01:00,47.3,39.0,30.50,NNE,22,2.0,6.0,74,0.00,,,0.00,weatherlink.com 1.10,2013-04-16 15:01:00,
2013-04-16 08:16:00,47.5,39.0,30.50,NE,50,1.0,7.0,73,0.00,,,0.00,weatherlink.com 1.10,2013-04-16 15:16:00,
2013-04-16 08:46:00,49.1,41.0,30.50,NNE,27,1.0,5.0,73,0.00,,,0.00,weatherlink.com 1.10,2013-04-16 15:46:00,
2013-04-16 09:01:00,48.9,40.0,30.50,NE,50,1.0,6.0,71,0.00,,,0.00,weatherlink.com 1.10,2013-04-16 16:01:00,
2013-04-16 09:16:00,49.5,40.0,30.51,WSW,249,0.0,4.0,70,0.00,,,0.00,weatherlink.com 1.10,2013-04-16 16:16:00,
2013-04-16 09:31:00,49.3,41.0,30.51,NE,40,1.0,10.0,72,0.00,,,0.00,weatherlink.com 1.10,2013-04-16 16:31:00,
2013-04-16 09:46:00,48.9,40.0,30.51,NNE,27,2.0,7.0,72,0.00,,,0.00,weatherlink.com 1.10,2013-04-16 16:46:00,
2013-04-16 10:01:00,49.0,40.0,30.50,NE,41,4.0,8.0,72,0.00,,,0.00,weatherlink.com 1.10,2013-04-16 17:01:00,
2013-04-16 10:16:00,49.2,39.0,30.51,North,9,1.0,6.0,69,0.00,,,0.00,weatherlink.com 1.10,2013-04-16 17:16:00,
2013-04-16 10:31:00,49.1,39.0,30.50,North,349,6.0,9.0,69,0.00,,,0.00,weatherlink.com 1.10,2013-04-16 17:31:00,
2013-04-16 10:46:00,49.4,40.0,30.50,NNE,18,6.0,10.0,70,0.00,,,0.00,weatherlink.com 1.10,2013-04-16 17:46:00,
2013-04-16 11:01:00,49.6,40.0,30.50,NE,39,2.0,9.0,70,0.00,,,0.00,weatherlink.com 1.10,2013-04-16 18:01:00,
2013-04-16 11:16:00,49.3,41.0,30.51,NE,36,5.0,9.0,74,0.00,,,0.00,weatherlink.com 1.10,2013-04-16 18:16:00,
2013-04-16 11:31:00,49.7,42.0,30.51,ENE,58,2.0,9.0,75,0.00,,,0.00,weatherlink.com 1.10,2013-04-16 18:31:00,
2013-04-16 11:46:00,50.2,42.0,30.51,NNE,32,5.0,8.0,74,0.00,,,0.00,weatherlink.com 1.10,2013-04-16 18:46:00,
2013-04-16 12:01:00,50.9,44.0,30.51,NE,40,0.0,7.0,78,0.00,,,0.00,weatherlink.com 1.10,2013-04-16 19:01:00,
2013-04-16 12:16:00,51.6,45.0,30.51,NE,40,2.0,6.0,77,0.00,,,0.00,weatherlink.com 1.10,2013-04-16 19:16:00,
2013-04-16 12:31:00,51.7,42.0,30.51,North,353,2.0,6.0,70,0.00,,,0.00,weatherlink.com 1.10,2013-04-16 19:31:00,
2013-04-16 12:47:00,53.1,42.0,30.51,NW,304,2.0,4.0,65,0.00,,,0.00,weatherlink.com 1.10,2013-04-16 19:47:00,
2013-04-16 13:02:00,52.8,42.0,30.51,NNW,329,3.0,5.0,68,0.00,,,0.00,weatherlink.com 1.10,2013-04-16 20:02:00,
2013-04-16 13:17:00,52.9,42.0,30.51,North,1,2.0,5.0,67,0.00,,,0.00,weatherlink.com 1.10,2013-04-16 20:17:00,
2013-04-16 13:32:00,52.5,42.0,30.50,NNE,15,4.0,5.0,67,0.00,,,0.00,weatherlink.com 1.10,2013-04-16 20:32:00,
2013-04-16 13:47:00,52.8,42.0,30.50,North,355,3.0,5.0,67,0.00,,,0.00,weatherlink.com 1.10,2013-04-16 20:47:00,
2013-04-16 14:02:00,52.1,42.0,30.50,NNW,344,3.0,7.0,68,0.00,,,0.00,weatherlink.com 1.10,2013-04-16 21:02:00,
2013-04-16 14:17:00,54.6,44.0,30.50,NW,311,2.0,4.0,67,0.00,,,0.00,weatherlink.com 1.10,2013-04-16 21:17:00,
2013-04-16 14:32:00,53.5,41.0,30.50,NNW,343,2.0,5.0,63,0.00,,,0.00,weatherlink.com 1.10,2013-04-16 21:32:00,
2013-04-16 14:47:00,53.3,38.0,30.50,WNW,291,5.0,6.0,56,0.00,,,0.00,weatherlink.com 1.10,2013-04-16 21:47:00,
2013-04-16 15:02:00,53.6,37.0,30.50,NW,316,3.0,6.0,54,0.00,,,0.00,weatherlink.com 1.10,2013-04-16 22:02:00,
2013-04-16 15:17:00,53.9,35.0,30.50,NW,305,3.0,5.0,49,0.00,,,0.00,weatherlink.com 1.10,2013-04-16 22:17:00,
2013-04-16 15:32:00,54.5,34.0,30.50,WNW,301,2.0,5.0,47,0.00,,,0.00,weatherlink.com 1.10,2013-04-16 22:32:00,
2013-04-16 15:47:00,54.9,37.0,30.50,NW,320,3.0,4.0,52,0.00,,,0.00,weatherlink.com 1.10,2013-04-16 22:47:00,
2013-04-16 16:02:00,54.5,34.0,30.49,NW,305,3.0,5.0,46,0.00,,,0.00,weatherlink.com 1.10,2013-04-16 23:02:00,
2013-04-16 16:17:00,54.7,32.0,30.49,NW,323,1.0,5.0,42,0.00,,,0.00,weatherlink.com 1.10,2013-04-16 23:17:00,
2013-04-16 16:32:00,55.0,30.0,30.49,NW,309,3.0,4.0,39,0.00,,,0.00,weatherlink.com 1.10,2013-04-16 23:32:00,
2013-04-16 16:47:00,55.4,32.0,30.49,NNW,342,3.0,4.0,42,0.00,,,0.00,weatherlink.com 1.10,2013-04-16 23:47:00,
2013-04-16 17:02:00,56.0,33.0,30.49,NW,319,1.0,3.0,42,0.00,,,0.00,weatherlink.com 1.10,2013-04-17 00:02:00,
2013-04-16 17:17:00,56.4,32.0,30.49,NW,323,2.0,3.0,39,0.00,,,0.00,weatherlink.com 1.10,2013-04-17 00:17:00,
2013-04-16 17:32:00,56.8,31.0,30.49,WNW,303,1.0,2.0,38,0.00,,,0.00,weatherlink.com 1.10,2013-04-17 00:32:00,
2013-04-16 17:47:00,57.1,30.0,30.50,WNW,294,1.0,3.0,36,0.00,,,0.00,weatherlink.com 1.10,2013-04-17 00:47:00,
2013-04-16 18:02:00,58.3,32.0,30.50,SW,219,2.0,3.0,37,0.00,,,0.00,weatherlink.com 1.10,2013-04-17 01:02:00,
2013-04-16 18:17:00,57.8,30.0,30.50,West,274,0.0,2.0,35,0.00,,,0.00,weatherlink.com 1.10,2013-04-17 01:17:00,
2013-04-16 18:32:00,58.6,29.0,30.50,NW,312,2.0,3.0,32,0.00,,,0.00,weatherlink.com 1.10,2013-04-17 01:32:00,
2013-04-16 18:47:00,56.4,29.0,30.50,NW,319,2.0,3.0,35,0.00,,,0.00,weatherlink.com 1.10,2013-04-17 01:47:00,
2013-04-16 19:02:00,57.2,29.0,30.50,NW,307,0.0,2.0,34,0.00,,,0.00,weatherlink.com 1.10,2013-04-17 02:02:00,
2013-04-16 19:17:00,57.5,31.0,30.50,NNW,347,1.0,3.0,36,0.00,,,0.00,weatherlink.com 1.10,2013-04-17 02:17:00,
2013-04-16 19:32:00,55.8,34.0,30.51,ESE,108,2.0,2.0,44,0.00,,,0.00,weatherlink.com 1.10,2013-04-17 02:32:00,
2013-04-16 19:47:00,51.9,37.0,30.51,ESE,120,1.0,2.0,58,0.00,,,0.00,weatherlink.com 1.10,2013-04-17 02:47:00,
2013-04-16 20:02:00,50.5,36.0,30.52,SSE,166,1.0,2.0,57,0.00,,,0.00,weatherlink.com 1.10,2013-04-17 03:02:00,
2013-04-16 20:17:00,50.1,31.0,30.52,SSE,167,0.0,1.0,49,0.00,,,0.00,weatherlink.com 1.10,2013-04-17 03:17:00,
2013-04-16 20:32:00,50.7,31.0,30.52,SSW,203,1.0,2.0,48,0.00,,,0.00,weatherlink.com 1.10,2013-04-17 03:32:00,
2013-04-16 20:47:00,50.2,34.0,30.53,SSW,210,1.0,3.0,55,0.00,,,0.00,weatherlink.com 1.10,2013-04-17 03:47:00,
2013-04-16 21:03:00,49.7,35.0,30.54,SSW,210,2.0,2.0,58,0.00,,,0.00,weatherlink.com 1.10,2013-04-17 04:03:00,
2013-04-16 21:18:00,49.7,35.0,30.55,SE,128,2.0,3.0,57,0.00,,,0.00,weatherlink.com 1.10,2013-04-17 04:18:00,
2013-04-16 21:33:00,49.6,34.0,30.55,SE,144,1.0,2.0,56,0.00,,,0.00,weatherlink.com 1.10,2013-04-17 04:33:00,
2013-04-16 21:48:00,49.6,35.0,30.55,SSE,152,1.0,2.0,58,0.00,,,0.00,weatherlink.com 1.10,2013-04-17 04:48:00,
2013-04-16 22:03:00,49.6,35.0,30.55,SE,146,1.0,2.0,57,0.00,,,0.00,weatherlink.com 1.10,2013-04-17 05:03:00,
2013-04-16 22:18:00,49.6,34.0,30.55,SSE,154,2.0,2.0,56,0.00,,,0.00,weatherlink.com 1.10,2013-04-17 05:18:00,
2013-04-16 22:33:00,49.7,34.0,30.55,SE,146,1.0,2.0,56,0.00,,,0.00,weatherlink.com 1.10,2013-04-17 05:33:00,
2013-04-16 22:48:00,49.6,34.0,30.55,South,188,2.0,3.0,56,0.00,,,0.00,weatherlink.com 1.10,2013-04-17 05:48:00,
2013-04-16 23:03:00,48.0,38.0,30.56,SSE,148,2.0,4.0,69,0.00,,,0.00,weatherlink.com 1.10,2013-04-17 06:03:00,
2013-04-16 23:18:00,46.7,39.0,30.56,South,187,2.0,4.0,75,0.00,,,0.00,weatherlink.com 1.10,2013-04-17 06:18:00,
2013-04-16 23:33:00,46.5,39.0,30.56,SSE,148,2.0,3.0,74,0.00,,,0.00,weatherlink.com 1.10,2013-04-17 06:33:00,
2013-04-16 23:48:00,46.4,39.0,30.56,SE,146,2.0,3.0,76,0.00,,,0.00,weatherlink.com 1.10,2013-04-17 06:48:00,